Wind Star — C6CA9 — position and weather

sailwx.info

Track history (hours):
 
Tides and Currents Weather Stations Pressure Air Temp Water Temp Dewpoint Dewpoint Depression Visibility Wind Speed Wind Dir Waves Ship Positions

Wind Star

Operator: Holland America Line

Last reported at 2019-Feb-17 15:42 UTC. Time now 2019-Feb-23 17:31 UTC.
Position N 09°11' W 079°52'.

Length 134 m; draft 4.1 m.

Type: Ship. MMSI: 309163000.

Date/timePositionNaut miles runAvg speedWind from/ knotsBaromVisibWave heightAir tempDewpointWater temp
2019-Feb-17 15:42N 09°11' W 079°52'1 7.4
2019-Feb-17 15:30N 09°11' W 079°53'4 6.2
2019-Feb-17 14:55N 09°14' W 079°56'2 3.1
2019-Feb-17 14:23N 09°15' W 079°55'1 2.8
2019-Feb-17 14:00N 09°16' W 079°55'0 0.4
2019-Feb-17 13:30N 09°16' W 079°55'0 0.9
2019-Feb-17 13:00N 09°17' W 079°55'1 1.8
2019-Feb-17 12:30N 09°18' W 079°55'3 6.0
2019-Feb-17 12:00N 09°21' W 079°55'2 3.3
2019-Feb-17 11:25N 09°23' W 079°55'0 0.0
2019-Feb-17 10:58N 09°23' W 079°55'0 0.0
2019-Feb-17 10:28N 09°23' W 079°55'0 0.0
2019-Feb-17 09:58N 09°23' W 079°55'0 0.0
2019-Feb-17 09:28N 09°23' W 079°55'0 0.0
2019-Feb-17 08:58N 09°23' W 079°55'0 0.0
2019-Feb-17 08:28N 09°23' W 079°55'0 0.0
2019-Feb-17 07:58N 09°23' W 079°55'0 0.0
2019-Feb-17 07:28N 09°23' W 079°55'0 0.0
2019-Feb-17 06:58N 09°23' W 079°55'0 0.0
2019-Feb-17 06:28N 09°23' W 079°55'0 0.0
2019-Feb-17 05:58N 09°23' W 079°55'0 0.0
2019-Feb-17 05:28N 09°23' W 079°55'0 0.0
2019-Feb-17 04:58N 09°23' W 079°55'0 0.0
2019-Feb-17 04:28N 09°23' W 079°55'0 0.0
2019-Feb-17 03:58N 09°23' W 079°55'0 0.0
2019-Feb-17 03:28N 09°23' W 079°55'0 0.0
2019-Feb-17 02:58N 09°23' W 079°55'0 0.0
2019-Feb-17 02:28N 09°23' W 079°55'0 0.0
2019-Feb-17 02:00N 09°23' W 079°55'0 0.0
2019-Feb-17 01:30N 09°23' W 079°55'1 2.7
2019-Feb-17 01:00N 09°24' W 079°54'2 3.9
2019-Feb-17 00:30N 09°22' W 079°54'0 0.0
2019-Feb-17 00:00N 09°22' W 079°54'0 0.0
2019-Feb-16 23:30N 09°22' W 079°54'0 0.0
2019-Feb-16 23:00N 09°22' W 079°54'0 0.0
2019-Feb-16 22:30N 09°22' W 079°54'0 0.0
2019-Feb-16 22:00N 09°22' W 079°54'0 0.0
2019-Feb-16 21:30N 09°22' W 079°54'0 0.0
2019-Feb-16 21:00N 09°22' W 079°54'0 0.0
2019-Feb-16 20:30N 09°22' W 079°54'0 0.0
2019-Feb-16 20:00N 09°22' W 079°54'0 0.0
2019-Feb-16 19:30N 09°22' W 079°54'0 0.0
2019-Feb-16 19:00N 09°22' W 079°54'0 0.0
2019-Feb-16 18:30N 09°22' W 079°54'0 0.0
2019-Feb-16 18:00N 09°22' W 079°54'0 0.0
2019-Feb-16 17:30N 09°22' W 079°54'0 0.0
2019-Feb-16 17:00N 09°22' W 079°54'0 0.0
2019-Feb-16 16:30N 09°22' W 079°54'0 0.0
2019-Feb-16 16:00N 09°22' W 079°54'0 0.0
2019-Feb-16 15:30N 09°22' W 079°54'0 0.0
2019-Feb-16 15:00N 09°22' W 079°54'0 0.0
2019-Feb-16 14:30N 09°22' W 079°54'0 0.0
2019-Feb-16 14:00N 09°22' W 079°54'0 0.0
2019-Feb-16 13:30N 09°22' W 079°54'0 0.0
2019-Feb-16 13:00N 09°22' W 079°54'0 0.0
2019-Feb-16 12:30N 09°22' W 079°54'0 0.0
2019-Feb-16 12:00N 09°22' W 079°54'0 0.0
2019-Feb-16 11:30N 09°22' W 079°54'0 0.0
2019-Feb-16 11:00N 09°22' W 079°54'0 0.0
2019-Feb-16 10:30N 09°22' W 079°54'0 0.0
2019-Feb-16 10:00N 09°22' W 079°54'0 0.0
2019-Feb-16 09:30N 09°22' W 079°54'0 0.0
2019-Feb-16 09:00N 09°22' W 079°54'0 0.0
2019-Feb-16 08:30N 09°22' W 079°54'0 0.0
2019-Feb-16 08:00N 09°22' W 079°54'0 0.0
2019-Feb-16 07:30N 09°22' W 079°54'0 0.0
2019-Feb-16 07:00N 09°22' W 079°54'0 0.0
2019-Feb-16 06:30N 09°22' W 079°54'0 0.0
2019-Feb-16 06:00N 09°22' W 079°54'0 0.0
2019-Feb-16 05:30N 09°22' W 079°54'0 0.0
2019-Feb-16 05:00N 09°22' W 079°54'0 0.0
2019-Feb-16 04:30N 09°22' W 079°54'0 0.0
2019-Feb-16 04:00N 09°22' W 079°54'0 0.0
2019-Feb-16 03:30N 09°22' W 079°54'0 0.0
2019-Feb-16 03:00N 09°22' W 079°54'0 0.0
2019-Feb-16 02:30N 09°22' W 079°54'0 0.0
2019-Feb-16 02:00N 09°22' W 079°54'0 0.0
2019-Feb-16 01:30N 09°22' W 079°54'0 0.6
2019-Feb-16 01:00N 09°22' W 079°53'3 6.0
2019-Feb-16 00:30N 09°25' W 079°54'5 8.5
2019-Feb-15 23:55N 09°30' W 079°53'2 5.0
2019-Feb-15 23:30N 09°29' W 079°55'511.0
2019-Feb-15 23:00N 09°24' W 079°55'5 9.3
2019-Feb-15 22:30N 09°19' W 079°55'2 4.7
2019-Feb-15 22:00N 09°17' W 079°55'0 0.7
2019-Feb-15 21:30N 09°16' W 079°55'1 1.1
2019-Feb-15 20:59N 09°16' W 079°55'0 0.6
2019-Feb-15 20:30N 09°15' W 079°55'0 0.7
2019-Feb-15 19:58N 09°15' W 079°55'0 0.7
2019-Feb-15 19:30N 09°15' W 079°55'3 6.4
2019-Feb-15 19:00N 09°12' W 079°54'  
Track history (hours):
 
Tides and Currents Weather Stations Pressure Air Temp Water Temp Dewpoint Dewpoint Depression Visibility Wind Speed Wind Dir Waves Ship Positions

Wind Star

Operator: Holland America Line

Last reported at 2019-Feb-17 15:42 UTC. Time now 2019-Feb-23 17:31 UTC.
Position N 09°11' W 079°52'.

Length 134 m; draft 4.1 m.

Type: Ship. MMSI: 309163000.

Date/timePositionNaut miles runAvg speedWind from/ knotsBaromVisibWave heightAir tempDewpointWater temp
2019-Feb-17 15:42N 09°11' W 079°52'1 7.4
2019-Feb-17 15:30N 09°11' W 079°53'4 6.2
2019-Feb-17 14:55N 09°14' W 079°56'2 3.1
2019-Feb-17 14:23N 09°15' W 079°55'1 2.8
2019-Feb-17 14:00N 09°16' W 079°55'0 0.4
2019-Feb-17 13:30N 09°16' W 079°55'0 0.9
2019-Feb-17 13:00N 09°17' W 079°55'1 1.8
2019-Feb-17 12:30N 09°18' W 079°55'3 6.0
2019-Feb-17 12:00N 09°21' W 079°55'2 3.3
2019-Feb-17 11:25N 09°23' W 079°55'0 0.0
2019-Feb-17 10:58N 09°23' W 079°55'0 0.0
2019-Feb-17 10:28N 09°23' W 079°55'0 0.0
2019-Feb-17 09:58N 09°23' W 079°55'0 0.0
2019-Feb-17 09:28N 09°23' W 079°55'0 0.0
2019-Feb-17 08:58N 09°23' W 079°55'0 0.0
2019-Feb-17 08:28N 09°23' W 079°55'0 0.0
2019-Feb-17 07:58N 09°23' W 079°55'0 0.0
2019-Feb-17 07:28N 09°23' W 079°55'0 0.0
2019-Feb-17 06:58N 09°23' W 079°55'0 0.0
2019-Feb-17 06:28N 09°23' W 079°55'0 0.0
2019-Feb-17 05:58N 09°23' W 079°55'0 0.0
2019-Feb-17 05:28N 09°23' W 079°55'0 0.0
2019-Feb-17 04:58N 09°23' W 079°55'0 0.0
2019-Feb-17 04:28N 09°23' W 079°55'0 0.0
2019-Feb-17 03:58N 09°23' W 079°55'0 0.0
2019-Feb-17 03:28N 09°23' W 079°55'0 0.0
2019-Feb-17 02:58N 09°23' W 079°55'0 0.0
2019-Feb-17 02:28N 09°23' W 079°55'0 0.0
2019-Feb-17 02:00N 09°23' W 079°55'0 0.0
2019-Feb-17 01:30N 09°23' W 079°55'1 2.7
2019-Feb-17 01:00N 09°24' W 079°54'2 3.9
2019-Feb-17 00:30N 09°22' W 079°54'0 0.0
2019-Feb-17 00:00N 09°22' W 079°54'0 0.0
2019-Feb-16 23:30N 09°22' W 079°54'0 0.0
2019-Feb-16 23:00N 09°22' W 079°54'0 0.0
2019-Feb-16 22:30N 09°22' W 079°54'0 0.0
2019-Feb-16 22:00N 09°22' W 079°54'0 0.0
2019-Feb-16 21:30N 09°22' W 079°54'0 0.0
2019-Feb-16 21:00N 09°22' W 079°54'0 0.0
2019-Feb-16 20:30N 09°22' W 079°54'0 0.0
2019-Feb-16 20:00N 09°22' W 079°54'0 0.0
2019-Feb-16 19:30N 09°22' W 079°54'0 0.0
2019-Feb-16 19:00N 09°22' W 079°54'0 0.0
2019-Feb-16 18:30N 09°22' W 079°54'0 0.0
2019-Feb-16 18:00N 09°22' W 079°54'0 0.0
2019-Feb-16 17:30N 09°22' W 079°54'0 0.0
2019-Feb-16 17:00N 09°22' W 079°54'0 0.0
2019-Feb-16 16:30N 09°22' W 079°54'0 0.0
2019-Feb-16 16:00N 09°22' W 079°54'0 0.0
2019-Feb-16 15:30N 09°22' W 079°54'0 0.0
2019-Feb-16 15:00N 09°22' W 079°54'0 0.0
2019-Feb-16 14:30N 09°22' W 079°54'0 0.0
2019-Feb-16 14:00N 09°22' W 079°54'0 0.0
2019-Feb-16 13:30N 09°22' W 079°54'0 0.0
2019-Feb-16 13:00N 09°22' W 079°54'0 0.0
2019-Feb-16 12:30N 09°22' W 079°54'0 0.0
2019-Feb-16 12:00N 09°22' W 079°54'0 0.0
2019-Feb-16 11:30N 09°22' W 079°54'0 0.0
2019-Feb-16 11:00N 09°22' W 079°54'0 0.0
2019-Feb-16 10:30N 09°22' W 079°54'0 0.0
2019-Feb-16 10:00N 09°22' W 079°54'0 0.0
2019-Feb-16 09:30N 09°22' W 079°54'0 0.0
2019-Feb-16 09:00N 09°22' W 079°54'0 0.0
2019-Feb-16 08:30N 09°22' W 079°54'0 0.0
2019-Feb-16 08:00N 09°22' W 079°54'0 0.0
2019-Feb-16 07:30N 09°22' W 079°54'0 0.0
2019-Feb-16 07:00N 09°22' W 079°54'0 0.0
2019-Feb-16 06:30N 09°22' W 079°54'0 0.0
2019-Feb-16 06:00N 09°22' W 079°54'0 0.0
2019-Feb-16 05:30N 09°22' W 079°54'0 0.0
2019-Feb-16 05:00N 09°22' W 079°54'0 0.0
2019-Feb-16 04:30N 09°22' W 079°54'0 0.0
2019-Feb-16 04:00N 09°22' W 079°54'0 0.0
2019-Feb-16 03:30N 09°22' W 079°54'0 0.0
2019-Feb-16 03:00N 09°22' W 079°54'0 0.0
2019-Feb-16 02:30N 09°22' W 079°54'0 0.0
2019-Feb-16 02:00N 09°22' W 079°54'0 0.0
2019-Feb-16 01:30N 09°22' W 079°54'0 0.6
2019-Feb-16 01:00N 09°22' W 079°53'3 6.0
2019-Feb-16 00:30N 09°25' W 079°54'5 8.5
2019-Feb-15 23:55N 09°30' W 079°53'2 5.0
2019-Feb-15 23:30N 09°29' W 079°55'511.0
2019-Feb-15 23:00N 09°24' W 079°55'5 9.3
2019-Feb-15 22:30N 09°19' W 079°55'2 4.7
2019-Feb-15 22:00N 09°17' W 079°55'0 0.7
2019-Feb-15 21:30N 09°16' W 079°55'1 1.1
2019-Feb-15 20:59N 09°16' W 079°55'0 0.6
2019-Feb-15 20:30N 09°15' W 079°55'0 0.7
2019-Feb-15 19:58N 09°15' W 079°55'0 0.7
2019-Feb-15 19:30N 09°15' W 079°55'3 6.4
2019-Feb-15 19:00N 09°12' W 079°54'  

Dump ship's entire track history